CheckWX is a tool to help pilots better visualize weather data.  It is not intended as a substitute for an official pre-flight weather briefing.

00:57:39 UTC

WATT TAF
El Tari Airport
Kupang-Timor Island, Indonesia
TAF WATT 182300Z 1900/1924 11008KT 9999 FEW018 BECMG 1903/1905 11017KT BECMG 1914/1916 09007KT

Jun-19@
00:00 UTC

Jun-19 @ 00:00 UTC

Jun-19@
03:00 UTC

Jun-19 @ 03:00 UTC

TAF WATT 182300Z 1900/1924 11008KT 9999 FEW018
Wind
  • 110° at 8 KTS
Cloud Levels
  • Few at 1,800' AGL

Jun-19@
03:00 UTC

Jun-19 @ 03:00 UTC

Jun-19@
14:00 UTC

Jun-19 @ 14:00 UTC

BECMG 1903/1905 11017KT

Becoming

Becoming Conditions expected by Wed, Jun 19, 2019 @ 05:00 UTC

Wind
  • 110° at 17 KTS
Cloud Levels
  • Few at 1,800' AGL

Jun-19@
14:00 UTC

Jun-19 @ 14:00 UTC

Jun-20@
00:00 UTC

Jun-20 @ 00:00 UTC

BECMG 1914/1916 09007KT

Becoming

Becoming Conditions expected by Wed, Jun 19, 2019 @ 16:00 UTC

Wind
  • 090° at 7 KTS
Cloud Levels
  • Few at 1,800' AGL